Terminal Aerodrome Forecast
Issued by NWS

Home | Current Version | Previous Version | Text Only | Print | Product List | Glossary On
Versions: 1 2 3 4 5 6 7 8 9 10 11 12 13 14 15 16 17 18 19 20
000
FTUS46 KLOX 301128
TAFBUR
TAF
KBUR 301128Z 3012/3112 VRB03KT P6SM BKN150
     FM301900 17008KT P6SM SCT050 BKN100
     FM310300 12006KT P6SM SCT040 BKN080
     FM310600 VRB03KT P6SM SCT050 BKN100=

USA.gov is the U.S. government's official web portal to all federal, state and local government web resources and services.